createdAt,value
2018-11-29T18:15:29.507Z,67.20
2018-11-29T18:16:30.873Z,67.20
2018-11-29T18:17:32.251Z,67.39
2018-11-29T18:18:33.619Z,67.11
2018-11-29T18:19:34.997Z,67.11
2018-11-29T18:20:36.377Z,67.30
2018-11-29T18:21:37.740Z,67.30
2018-11-29T18:22:39.104Z,67.30
2018-11-29T18:23:40.477Z,67.20
2018-11-29T18:24:41.848Z,67.11
2018-11-29T18:25:43.215Z,67.30
2018-11-29T18:26:44.591Z,67.11
2018-11-29T18:27:45.971Z,67.20
2018-11-29T18:28:47.348Z,67.49
2018-11-29T18:29:48.726Z,67.20
2018-11-29T18:30:50.118Z,67.30
2018-11-29T18:31:51.487Z,67.20
2018-11-29T18:32:52.851Z,67.20
2018-11-29T18:33:54.234Z,66.63
2018-11-29T18:34:55.611Z,66.63
2018-11-29T18:35:56.980Z,66.53
2018-11-29T18:36:58.348Z,66.82
2018-11-29T18:37:59.718Z,66.63
2018-11-29T18:39:01.095Z,66.82
2018-11-29T18:40:02.464Z,66.73
2018-11-29T18:41:03.800Z,66.53
2018-11-29T18:42:05.170Z,66.53
2018-11-29T18:43:06.538Z,66.63
2018-11-29T18:44:07.911Z,66.73
2018-11-29T18:45:09.288Z,66.82
2018-11-29T18:46:10.659Z,67.01
2018-11-29T18:47:12.027Z,66.82
2018-11-29T18:48:13.408Z,66.73
2018-11-29T18:49:14.781Z,66.82
2018-11-29T18:50:16.149Z,66.53
2018-11-29T18:51:17.519Z,66.63
2018-11-29T18:52:18.892Z,66.53
2018-11-29T18:53:20.256Z,66.73
2018-11-29T18:54:21.640Z,66.82
2018-11-29T18:55:23.010Z,66.82
2018-11-29T18:56:24.393Z,66.73
2018-11-29T18:57:25.757Z,66.73
2018-11-29T18:58:27.125Z,66.92
2018-11-29T18:59:28.499Z,67.01
2018-11-29T19:00:29.869Z,66.92
2018-11-29T19:01:31.247Z,66.63
2018-11-29T19:02:32.607Z,66.73
2018-11-29T19:03:33.975Z,67.11
2018-11-29T19:04:36.006Z,66.63
2018-11-29T19:05:37.379Z,66.63
2018-11-29T19:06:38.747Z,66.53
2018-11-29T19:07:40.117Z,66.73
2018-11-29T19:08:41.490Z,66.82
2018-11-29T19:09:42.856Z,66.63
2018-11-29T19:10:44.230Z,66.82
2018-11-29T19:11:45.590Z,66.82
2018-11-29T19:12:46.964Z,66.82
2018-11-29T19:13:48.332Z,66.92
2018-11-29T19:14:49.701Z,66.82
2018-11-29T19:15:51.072Z,66.92
2018-11-29T19:16:52.441Z,66.82
2018-11-29T19:17:53.817Z,66.73
2018-11-29T19:18:55.187Z,66.53
2018-11-29T19:19:56.562Z,66.92
2018-11-29T19:20:57.933Z,66.73
2018-11-29T19:21:59.305Z,66.73
2018-11-29T19:23:00.677Z,66.63
2018-11-29T19:24:02.041Z,66.82
2018-11-29T19:25:03.415Z,66.25
2018-11-29T19:26:04.784Z,66.44
2018-11-29T19:27:06.158Z,66.44
2018-11-29T19:28:07.531Z,66.35
2018-11-29T19:29:08.903Z,66.44
2018-11-29T19:30:10.276Z,66.35
2018-11-29T19:31:11.642Z,66.44
2018-11-29T19:32:13.009Z,66.35
2018-11-29T19:33:17.400Z,66.73
2018-11-29T19:34:15.711Z,66.82
2018-11-29T19:35:17.082Z,66.82
2018-11-29T19:36:18.456Z,66.44
2018-11-29T19:37:19.830Z,66.35
2018-11-29T19:38:21.197Z,66.25
2018-11-29T19:39:22.569Z,66.53
2018-11-29T19:40:23.943Z,66.35
2018-11-29T19:41:25.317Z,66.53
2018-11-29T19:42:26.694Z,66.53
2018-11-29T19:43:28.062Z,66.44
2018-11-29T19:44:29.434Z,66.35
2018-11-29T19:45:30.800Z,66.53
2018-11-29T19:46:32.183Z,65.56
2018-11-29T19:47:33.546Z,65.75
2018-11-29T19:48:35.418Z,66.06
2018-11-29T19:49:36.763Z,66.22
2018-11-29T19:50:38.153Z,66.16
2018-11-29T19:51:39.521Z,65.97
2018-11-29T19:52:40.894Z,66.13
2018-11-29T19:53:42.296Z,65.75
2018-11-29T19:54:46.939Z,65.59
2018-11-29T19:55:51.833Z,65.47
2018-11-29T19:56:53.205Z,65.47
2018-11-29T19:57:54.867Z,65.31
2018-11-29T19:58:56.823Z,65.37
2018-11-29T19:59:59.483Z,65.12
2018-11-29T20:01:00.856Z,65.31
2018-11-29T20:02:04.635Z,65.31
2018-11-29T20:03:06.003Z,65.40
2018-11-29T20:04:07.480Z,65.50
2018-11-29T20:05:08.710Z,65.47
2018-11-29T20:06:10.079Z,65.47
2018-11-29T20:07:11.447Z,65.47
2018-11-29T20:08:14.984Z,65.09
2018-11-29T20:09:16.350Z,64.99
2018-11-29T20:10:20.739Z,64.99
2018-11-29T20:11:23.044Z,64.99
2018-11-29T20:12:26.927Z,64.99
2018-11-29T20:13:28.299Z,64.71
2018-11-29T20:14:29.663Z,64.83
2018-11-29T20:15:35.068Z,64.71
2018-11-29T20:16:36.984Z,64.90
2018-11-29T20:17:38.353Z,65.18
2018-11-29T20:18:39.721Z,64.80
2018-11-29T20:19:41.087Z,64.61
2018-11-29T20:20:42.458Z,64.23
2018-11-29T20:21:43.826Z,64.71
2018-11-29T20:22:45.195Z,64.90
2018-11-29T20:23:46.577Z,64.33
2018-11-29T20:24:47.944Z,64.14
2018-11-29T20:25:49.315Z,64.33
2018-11-29T20:26:50.686Z,64.52
2018-11-29T20:27:52.047Z,64.80
2018-11-29T20:28:53.418Z,64.14
2018-11-29T20:29:54.788Z,64.33
2018-11-29T20:30:56.162Z,64.42
2018-11-29T20:31:57.524Z,64.33
2018-11-29T20:32:59.064Z,64.52
2018-11-29T20:34:00.234Z,64.23
2018-11-29T20:35:01.598Z,64.33
2018-11-29T20:36:02.974Z,64.14
2018-11-29T20:37:04.344Z,64.23
2018-11-29T20:38:05.718Z,64.52
2018-11-29T20:39:07.086Z,64.33
2018-11-29T20:40:08.454Z,64.23
2018-11-29T20:41:09.825Z,63.85
2018-11-29T20:42:11.197Z,64.04
2018-11-29T20:43:12.565Z,64.04
2018-11-29T20:44:13.966Z,63.67
2018-11-29T20:45:15.313Z,63.76
2018-11-29T20:46:16.679Z,63.85
2018-11-29T20:47:18.041Z,63.95
2018-11-29T20:48:19.413Z,63.85
2018-11-29T20:49:21.045Z,64.14
2018-11-29T20:50:23.637Z,63.57
2018-11-29T20:51:25.003Z,64.33
2018-11-29T20:52:26.397Z,64.23
2018-11-29T20:53:27.764Z,64.04
2018-11-29T20:54:29.137Z,63.76
2018-11-29T20:55:30.511Z,63.76
2018-11-29T20:56:31.886Z,63.95
2018-11-29T20:57:33.250Z,64.04
2018-11-29T20:58:34.622Z,64.04
2018-11-29T20:59:35.994Z,64.04
2018-11-29T21:00:37.362Z,63.95
2018-11-29T21:01:38.768Z,64.14
2018-11-29T21:02:40.101Z,63.67
2018-11-29T21:03:41.473Z,63.01
2018-11-29T21:04:42.842Z,63.29
2018-11-29T21:05:44.214Z,63.70
2018-11-29T21:06:45.589Z,63.29
2018-11-29T21:07:46.956Z,63.23
2018-11-29T21:08:48.328Z,63.29
2018-11-29T21:09:49.699Z,63.13
2018-11-29T21:10:51.079Z,62.94
2018-11-29T21:11:58.790Z,62.82
2018-11-29T21:13:00.900Z,62.75
2018-11-29T21:14:05.248Z,62.91
2018-11-29T21:15:12.059Z,63.32
2018-11-29T21:16:14.301Z,62.85
2018-11-29T21:17:15.703Z,62.94
2018-11-29T21:18:20.223Z,62.85
2018-11-29T21:19:28.324Z,63.13
2018-11-29T21:20:32.864Z,62.75
2018-11-29T21:21:40.063Z,62.37
2018-11-29T21:22:44.743Z,62.66
2018-11-29T21:23:52.351Z,62.66
2018-11-29T21:24:55.125Z,62.75
2018-11-29T21:26:00.943Z,62.75
2018-11-29T21:27:04.122Z,62.66
2018-11-29T21:28:07.161Z,62.56
2018-11-29T21:29:10.981Z,62.85
2018-11-29T21:30:20.100Z,62.47
2018-11-29T21:31:27.570Z,62.56
2018-11-29T21:32:35.835Z,62.56
2018-11-29T21:33:37.208Z,62.56
2018-11-29T21:34:39.136Z,62.66
2018-11-29T21:35:43.024Z,62.18
2018-11-29T21:36:45.152Z,62.09
2018-11-29T21:37:48.141Z,61.99
2018-11-29T21:38:56.132Z,62.37
2018-11-29T21:39:57.464Z,62.28
2018-11-29T21:40:58.832Z,62.09
2018-11-29T21:42:00.200Z,62.15
2018-11-29T21:43:01.575Z,62.75
